createdAt,value
2022-09-15T00:02:47.538Z,2.78
2022-09-15T00:07:42.700Z,4.53
2022-09-15T00:12:37.819Z,2.38
2022-09-15T00:17:32.329Z,3.78
2022-09-15T00:22:27.048Z,2.17
2022-09-15T00:27:21.231Z,2.30
2022-09-15T00:32:14.605Z,3.50
2022-09-15T00:37:08.003Z,1.98
2022-09-15T00:42:01.492Z,2.72
2022-09-15T00:47:15.678Z,1.77
2022-09-15T00:52:15.709Z,3.45
2022-09-15T00:57:40.245Z,3.03
2022-09-15T01:02:36.280Z,2.65
2022-09-15T01:07:40.503Z,2.95
2022-09-15T01:12:33.811Z,3.45
2022-09-15T01:17:50.504Z,3.28
2022-09-15T01:22:59.256Z,2.88
2022-09-15T01:28:35.547Z,2.97
2022-09-15T01:34:03.926Z,3.22
2022-09-15T01:39:20.083Z,2.67
2022-09-15T01:44:22.318Z,2.22
2022-09-15T01:49:18.372Z,2.65
2022-09-15T01:54:31.415Z,1.63
2022-09-15T01:59:44.716Z,2.30
2022-09-15T02:05:02.043Z,2.38
2022-09-15T02:10:01.330Z,2.17
2022-09-15T02:14:59.347Z,1.83
2022-09-15T02:19:56.949Z,3.70
2022-09-15T02:25:10.453Z,1.92
2022-09-15T02:30:09.868Z,2.05
2022-09-15T02:35:07.991Z,2.20
2022-09-15T02:40:02.526Z,2.47
2022-09-15T02:44:56.540Z,1.63
2022-09-15T02:49:50.435Z,1.33
2022-09-15T02:54:44.324Z,2.03
2022-09-15T02:59:56.137Z,3.38
2022-09-15T03:04:50.806Z,1.70
2022-09-15T03:09:44.980Z,2.05
2022-09-15T03:14:38.698Z,2.03
2022-09-15T03:19:32.725Z,1.55
2022-09-15T03:24:26.648Z,1.95
2022-09-15T03:29:20.141Z,2.15
2022-09-15T03:34:13.556Z,1.98
2022-09-15T03:39:07.081Z,2.05
2022-09-15T03:44:02.305Z,1.90
2022-09-15T03:48:56.756Z,1.77
2022-09-15T03:53:51.111Z,1.90
2022-09-15T03:58:44.244Z,1.90
2022-09-15T04:03:44.111Z,2.10
2022-09-15T04:08:38.806Z,2.00
2022-09-15T04:13:32.196Z,2.17
2022-09-15T04:18:25.969Z,2.35
2022-09-15T04:23:20.982Z,2.03
2022-09-15T04:28:15.447Z,1.85
2022-09-15T04:33:09.752Z,2.40
2022-09-15T04:38:04.245Z,2.20
2022-09-15T04:42:58.713Z,2.40
2022-09-15T04:47:56.545Z,2.10
2022-09-15T04:52:50.359Z,2.33
2022-09-15T04:57:43.892Z,2.70
2022-09-15T05:02:37.154Z,2.47
2022-09-15T05:07:31.140Z,3.72
2022-09-15T05:12:25.590Z,4.78
2022-09-15T05:17:19.416Z,4.60
2022-09-15T05:22:17.877Z,3.92
2022-09-15T05:27:10.674Z,3.65
2022-09-15T05:32:04.859Z,4.35
2022-09-15T05:36:58.689Z,3.88
2022-09-15T05:41:52.749Z,4.30
2022-09-15T05:46:46.749Z,3.67
2022-09-15T05:51:39.960Z,4.20
2022-09-15T05:56:34.130Z,5.18
2022-09-15T06:01:30.383Z,5.13
2022-09-15T06:06:24.233Z,3.97
2022-09-15T06:11:20.155Z,4.18
2022-09-15T06:16:15.955Z,4.35
2022-09-15T06:21:18.887Z,4.65
2022-09-15T06:26:22.332Z,3.42
2022-09-15T06:31:17.380Z,3.50
2022-09-15T06:36:12.450Z,3.78
2022-09-15T06:41:07.143Z,4.00
2022-09-15T06:46:37.466Z,3.88
2022-09-15T06:51:35.423Z,4.75
2022-09-15T06:56:30.955Z,5.53
2022-09-15T07:01:33.114Z,5.35
2022-09-15T07:06:29.300Z,5.65
2022-09-15T07:11:23.478Z,5.32
2022-09-15T07:16:19.400Z,5.40
2022-09-15T07:21:17.304Z,7.28
2022-09-15T07:26:16.998Z,6.18
2022-09-15T07:31:12.906Z,5.63
2022-09-15T07:36:07.510Z,5.75
2022-09-15T07:41:12.090Z,5.85
2022-09-15T07:46:05.752Z,6.82
2022-09-15T07:51:00.472Z,6.80
2022-09-15T07:55:54.998Z,5.72
2022-09-15T08:00:48.683Z,5.50
2022-09-15T08:05:45.594Z,6.85
2022-09-15T08:10:41.847Z,4.88
2022-09-15T08:15:37.971Z,3.90
2022-09-15T08:20:36.108Z,3.95
2022-09-15T08:25:31.252Z,3.97
2022-09-15T08:30:24.628Z,3.78
2022-09-15T08:35:17.736Z,3.20
2022-09-15T08:40:24.710Z,2.72
2022-09-15T08:45:25.305Z,3.10
2022-09-15T08:50:31.582Z,2.25
2022-09-15T08:55:36.149Z,2.20
2022-09-15T09:00:30.199Z,3.55
2022-09-15T09:05:48.694Z,3.13
2022-09-15T09:11:14.133Z,2.50
2022-09-15T09:16:37.962Z,3.00
2022-09-15T09:21:42.822Z,3.38
2022-09-15T09:26:37.478Z,3.50
2022-09-15T09:31:30.968Z,4.70
2022-09-15T09:36:24.101Z,3.25
2022-09-15T09:41:27.672Z,3.25
2022-09-15T09:46:22.669Z,2.78
2022-09-15T09:51:36.027Z,3.65
2022-09-15T09:56:30.685Z,3.90
2022-09-15T10:01:26.737Z,3.72
2022-09-15T10:06:29.184Z,3.25
2022-09-15T10:11:23.318Z,2.33
2022-09-15T10:16:20.317Z,3.05
2022-09-15T10:21:16.792Z,3.80
2022-09-15T10:26:21.654Z,3.15
2022-09-15T10:31:29.650Z,4.13
2022-09-15T10:36:24.830Z,2.50
2022-09-15T10:41:21.270Z,3.58
2022-09-15T10:46:26.187Z,2.73
2022-09-15T10:51:32.636Z,3.38
2022-09-15T10:56:30.697Z,2.53
2022-09-15T11:01:41.040Z,2.25
2022-09-15T11:06:39.104Z,3.22
2022-09-15T11:11:52.506Z,4.15
2022-09-15T11:17:10.170Z,4.70
2022-09-15T11:22:52.658Z,4.77
2022-09-15T11:28:08.616Z,5.45
2022-09-15T11:33:22.091Z,4.28
2022-09-15T11:38:52.838Z,4.05
2022-09-15T11:44:08.390Z,6.30
2022-09-15T11:49:17.708Z,3.28
2022-09-15T11:54:29.995Z,2.50
2022-09-15T11:59:45.115Z,1.35
2022-09-15T12:04:55.603Z,1.73
2022-09-15T12:09:50.417Z,2.53
2022-09-15T12:14:47.444Z,2.15
2022-09-15T12:19:50.036Z,2.33
2022-09-15T12:24:50.472Z,2.40
2022-09-15T12:30:00.859Z,1.40
2022-09-15T12:35:18.613Z,1.42
2022-09-15T12:40:38.576Z,1.77
2022-09-15T12:45:33.800Z,2.13
2022-09-15T12:50:32.798Z,1.73
2022-09-15T12:55:36.826Z,2.28
2022-09-15T13:00:35.303Z,1.67
2022-09-15T13:05:43.954Z,2.63
2022-09-15T13:10:41.303Z,3.38
2022-09-15T13:15:35.737Z,2.33
2022-09-15T13:20:32.990Z,2.25
2022-09-15T13:25:31.541Z,4.03
2022-09-15T13:30:49.301Z,2.30
2022-09-15T13:36:20.762Z,2.35
2022-09-15T13:41:25.184Z,2.15
2022-09-15T13:46:36.566Z,4.50
2022-09-15T13:51:32.053Z,3.65
2022-09-15T13:56:28.366Z,4.32
2022-09-15T14:01:34.728Z,3.33
2022-09-15T14:06:36.435Z,2.65
2022-09-15T14:11:33.368Z,5.15
2022-09-15T14:16:36.174Z,3.70
2022-09-15T14:21:32.484Z,4.20
2022-09-15T14:26:29.139Z,3.95
2022-09-15T14:31:48.456Z,3.25
2022-09-15T14:36:41.746Z,2.72
2022-09-15T14:41:37.333Z,2.13
2022-09-15T14:46:38.860Z,2.05
2022-09-15T14:51:33.500Z,1.80
2022-09-15T14:56:30.496Z,1.98
2022-09-15T15:01:37.210Z,2.70
2022-09-15T15:06:38.144Z,1.90
2022-09-15T15:11:32.852Z,2.28
2022-09-15T15:16:30.511Z,2.90
2022-09-15T15:21:41.337Z,2.33
2022-09-15T15:26:39.866Z,1.65
2022-09-15T15:36:29.117Z,2.47
2022-09-15T15:41:33.799Z,3.13
2022-09-15T15:46:53.373Z,4.25
2022-09-15T15:51:48.055Z,2.80
2022-09-15T15:56:43.701Z,2.78
2022-09-15T16:01:37.936Z,2.85
2022-09-15T16:06:34.076Z,2.67
2022-09-15T16:11:28.148Z,2.67
2022-09-15T16:16:24.702Z,3.97
2022-09-15T16:21:37.785Z,2.58
2022-09-15T16:26:32.404Z,2.55
2022-09-15T16:31:25.633Z,2.40
2022-09-15T16:36:19.527Z,2.97
2022-09-15T16:41:39.243Z,2.30
2022-09-15T16:46:33.578Z,2.80
2022-09-15T16:51:31.172Z,2.40
2022-09-15T16:56:25.303Z,4.13
2022-09-15T17:01:21.318Z,2.17
2022-09-15T17:06:18.172Z,2.30
2022-09-15T17:11:17.111Z,2.65
2022-09-15T17:16:11.721Z,3.00
2022-09-15T17:21:05.973Z,2.10
2022-09-15T17:26:01.465Z,2.05
2022-09-15T17:31:18.905Z,2.47
2022-09-15T17:36:13.656Z,2.83
2022-09-15T17:41:08.761Z,1.60
2022-09-15T17:46:02.414Z,2.55
2022-09-15T17:50:57.490Z,2.20
2022-09-15T17:55:52.307Z,2.20
2022-09-15T18:00:46.679Z,1.95
2022-09-15T18:05:40.247Z,2.88
2022-09-15T18:10:35.476Z,2.08
2022-09-15T18:15:30.975Z,1.90
2022-09-15T18:20:27.124Z,1.67
2022-09-15T18:25:24.595Z,2.10
2022-09-15T18:30:19.317Z,1.70
2022-09-15T18:35:18.539Z,2.53
2022-09-15T18:40:18.898Z,1.85
2022-09-15T18:45:15.354Z,2.03
2022-09-15T18:50:10.215Z,2.25
2022-09-15T18:55:06.063Z,2.22
2022-09-15T19:00:00.253Z,2.13
2022-09-15T19:04:54.391Z,2.20
2022-09-15T19:09:54.400Z,2.55
2022-09-15T19:14:50.636Z,2.15
2022-09-15T19:19:44.596Z,3.13
2022-09-15T19:24:38.364Z,2.13
2022-09-15T19:29:35.006Z,1.73
2022-09-15T19:34:28.888Z,1.55
2022-09-15T19:39:22.156Z,2.15
2022-09-15T19:44:16.905Z,3.20
2022-09-15T19:49:10.662Z,2.53
2022-09-15T19:54:04.643Z,1.73
2022-09-15T19:59:00.180Z,2.15
2022-09-15T20:03:55.332Z,1.88
2022-09-15T20:08:49.108Z,1.63
2022-09-15T20:13:46.407Z,1.80
2022-09-15T20:18:43.699Z,1.80
2022-09-15T20:23:37.841Z,1.95
2022-09-15T20:28:31.315Z,1.67
2022-09-15T20:33:28.025Z,2.65
2022-09-15T20:38:24.933Z,1.80
2022-09-15T20:43:23.736Z,1.67
2022-09-15T20:48:18.472Z,1.67
2022-09-15T20:53:12.691Z,1.83
2022-09-15T20:58:09.048Z,1.63
2022-09-15T21:03:03.896Z,4.78
2022-09-15T21:07:58.553Z,2.35
2022-09-15T21:12:52.571Z,2.25
2022-09-15T21:17:47.415Z,2.67
2022-09-15T21:22:41.301Z,1.65
2022-09-15T21:27:36.088Z,1.73
2022-09-15T21:32:30.972Z,1.63
2022-09-15T21:37:28.428Z,1.67
2022-09-15T21:42:26.909Z,1.77
2022-09-15T21:47:21.620Z,1.45
2022-09-15T21:52:15.510Z,1.48
2022-09-15T21:57:09.405Z,1.75
2022-09-15T22:02:04.226Z,2.15
2022-09-15T22:06:59.413Z,1.70
2022-09-15T22:11:54.737Z,1.92
2022-09-15T22:16:49.843Z,1.75
2022-09-15T22:21:44.487Z,1.65
2022-09-15T22:26:40.431Z,1.80
2022-09-15T22:31:35.201Z,1.90
2022-09-15T22:36:30.790Z,1.70
2022-09-15T22:41:26.744Z,1.60
2022-09-15T22:46:20.817Z,1.50
2022-09-15T22:51:15.316Z,1.35
2022-09-15T22:56:14.980Z,1.50
2022-09-15T23:01:18.165Z,1.48
2022-09-15T23:06:12.375Z,1.40
2022-09-15T23:11:08.507Z,1.30
2022-09-15T23:16:03.690Z,1.38
2022-09-15T23:21:02.385Z,1.40
2022-09-15T23:25:56.781Z,1.42
2022-09-15T23:30:55.048Z,2.00
2022-09-15T23:35:48.505Z,1.45
2022-09-15T23:40:43.829Z,1.55
2022-09-15T23:45:38.553Z,1.67
2022-09-15T23:50:33.466Z,1.40
2022-09-15T23:55:25.980Z,1.63
